sensor_id;sensor_type;location;lat;lon;timestamp;P1;durP1;ratioP1;P2;durP2;ratioP2
9178;SDS011;4624;48.126;11.546;2022-11-02T00:01:41;2.97;;;1.90;;
9178;SDS011;4624;48.126;11.546;2022-11-02T00:04:09;4.93;;;1.70;;
9178;SDS011;4624;48.126;11.546;2022-11-02T00:06:36;3.23;;;1.70;;
9178;SDS011;4624;48.126;11.546;2022-11-02T00:09:03;2.83;;;2.10;;
9178;SDS011;4624;48.126;11.546;2022-11-02T00:11:31;5.70;;;2.13;;
9178;SDS011;4624;48.126;11.546;2022-11-02T00:13:58;3.40;;;2.10;;
9178;SDS011;4624;48.126;11.546;2022-11-02T00:16:24;6.33;;;2.60;;
9178;SDS011;4624;48.126;11.546;2022-11-02T00:18:52;6.07;;;2.30;;
9178;SDS011;4624;48.126;11.546;2022-11-02T00:21:22;3.50;;;1.80;;
9178;SDS011;4624;48.126;11.546;2022-11-02T00:23:52;3.97;;;1.87;;
9178;SDS011;4624;48.126;11.546;2022-11-02T00:26:19;4.30;;;2.17;;
9178;SDS011;4624;48.126;11.546;2022-11-02T00:28:48;3.67;;;1.97;;
9178;SDS011;4624;48.126;11.546;2022-11-02T00:31:15;4.67;;;1.93;;
9178;SDS011;4624;48.126;11.546;2022-11-02T00:33:41;4.70;;;1.97;;
9178;SDS011;4624;48.126;11.546;2022-11-02T00:36:08;4.40;;;2.20;;
9178;SDS011;4624;48.126;11.546;2022-11-02T00:38:35;1.77;;;1.50;;
9178;SDS011;4624;48.126;11.546;2022-11-02T00:41:02;3.47;;;2.07;;
9178;SDS011;4624;48.126;11.546;2022-11-02T00:43:28;2.00;;;1.80;;
9178;SDS011;4624;48.126;11.546;2022-11-02T00:45:57;2.33;;;1.73;;
9178;SDS011;4624;48.126;11.546;2022-11-02T00:48:24;2.40;;;1.57;;
9178;SDS011;4624;48.126;11.546;2022-11-02T00:50:51;4.70;;;1.87;;
9178;SDS011;4624;48.126;11.546;2022-11-02T00:53:17;3.73;;;1.70;;
9178;SDS011;4624;48.126;11.546;2022-11-02T00:55:44;5.00;;;1.77;;
9178;SDS011;4624;48.126;11.546;2022-11-02T00:58:11;4.27;;;1.80;;
9178;SDS011;4624;48.126;11.546;2022-11-02T01:00:38;3.57;;;2.00;;
9178;SDS011;4624;48.126;11.546;2022-11-02T01:03:06;3.60;;;1.77;;
9178;SDS011;4624;48.126;11.546;2022-11-02T01:05:33;1.90;;;1.73;;
9178;SDS011;4624;48.126;11.546;2022-11-02T01:08:01;6.17;;;1.93;;
9178;SDS011;4624;48.126;11.546;2022-11-02T01:10:28;3.03;;;1.40;;
9178;SDS011;4624;48.126;11.546;2022-11-02T01:12:55;3.03;;;1.70;;
9178;SDS011;4624;48.126;11.546;2022-11-02T01:15:22;2.20;;;1.70;;
9178;SDS011;4624;48.126;11.546;2022-11-02T01:17:48;2.97;;;1.80;;
9178;SDS011;4624;48.126;11.546;2022-11-02T01:20:16;2.50;;;1.77;;
9178;SDS011;4624;48.126;11.546;2022-11-02T01:22:43;3.83;;;2.10;;
9178;SDS011;4624;48.126;11.546;2022-11-02T01:25:10;4.30;;;1.63;;
9178;SDS011;4624;48.126;11.546;2022-11-02T01:27:37;6.53;;;1.93;;
9178;SDS011;4624;48.126;11.546;2022-11-02T01:30:04;4.73;;;2.00;;
9178;SDS011;4624;48.126;11.546;2022-11-02T01:32:32;4.43;;;2.60;;
9178;SDS011;4624;48.126;11.546;2022-11-02T01:34:58;5.77;;;2.53;;
9178;SDS011;4624;48.126;11.546;2022-11-02T01:37:28;2.40;;;1.73;;
9178;SDS011;4624;48.126;11.546;2022-11-02T01:39:54;4.10;;;2.57;;
9178;SDS011;4624;48.126;11.546;2022-11-02T01:42:22;2.20;;;1.83;;
9178;SDS011;4624;48.126;11.546;2022-11-02T01:44:50;2.90;;;1.97;;
9178;SDS011;4624;48.126;11.546;2022-11-02T01:47:18;4.60;;;1.70;;
9178;SDS011;4624;48.126;11.546;2022-11-02T01:49:50;4.47;;;1.87;;
9178;SDS011;4624;48.126;11.546;2022-11-02T01:52:22;2.00;;;1.50;;
9178;SDS011;4624;48.126;11.546;2022-11-02T01:54:55;1.60;;;1.23;;
9178;SDS011;4624;48.126;11.546;2022-11-02T01:57:24;3.80;;;1.40;;
9178;SDS011;4624;48.126;11.546;2022-11-02T01:59:54;5.00;;;1.90;;
9178;SDS011;4624;48.126;11.546;2022-11-02T02:02:27;3.30;;;1.80;;
9178;SDS011;4624;48.126;11.546;2022-11-02T02:04:57;2.60;;;1.60;;
9178;SDS011;4624;48.126;11.546;2022-11-02T02:07:27;2.43;;;1.67;;
9178;SDS011;4624;48.126;11.546;2022-11-02T02:09:58;3.73;;;1.53;;
9178;SDS011;4624;48.126;11.546;2022-11-02T02:12:25;2.77;;;1.60;;
9178;SDS011;4624;48.126;11.546;2022-11-02T02:14:53;4.60;;;1.60;;
9178;SDS011;4624;48.126;11.546;2022-11-02T02:17:23;2.93;;;1.60;;
9178;SDS011;4624;48.126;11.546;2022-11-02T02:19:57;4.13;;;1.20;;
9178;SDS011;4624;48.126;11.546;2022-11-02T02:22:50;2.47;;;1.47;;
9178;SDS011;4624;48.126;11.546;2022-11-02T02:25:59;2.67;;;1.63;;
9178;SDS011;4624;48.126;11.546;2022-11-02T02:28:58;2.20;;;1.20;;
9178;SDS011;4624;48.126;11.546;2022-11-02T02:31:30;3.93;;;1.70;;
9178;SDS011;4624;48.126;11.546;2022-11-02T02:34:03;3.10;;;1.50;;
9178;SDS011;4624;48.126;11.546;2022-11-02T02:36:35;3.33;;;1.87;;
9178;SDS011;4624;48.126;11.546;2022-11-02T02:39:10;2.27;;;1.47;;
9178;SDS011;4624;48.126;11.546;2022-11-02T02:41:42;2.67;;;1.63;;
9178;SDS011;4624;48.126;11.546;2022-11-02T02:44:15;1.63;;;1.20;;
9178;SDS011;4624;48.126;11.546;2022-11-02T02:46:48;2.27;;;1.20;;
9178;SDS011;4624;48.126;11.546;2022-11-02T02:49:21;3.17;;;1.50;;
9178;SDS011;4624;48.126;11.546;2022-11-02T02:51:52;3.70;;;1.33;;
9178;SDS011;4624;48.126;11.546;2022-11-02T02:54:22;1.90;;;1.13;;
9178;SDS011;4624;48.126;11.546;2022-11-02T02:56:56;1.20;;;1.07;;
9178;SDS011;4624;48.126;11.546;2022-11-02T02:59:30;4.63;;;1.50;;
9178;SDS011;4624;48.126;11.546;2022-11-02T03:02:03;5.40;;;1.83;;
9178;SDS011;4624;48.126;11.546;2022-11-02T03:04:31;1.53;;;1.27;;
9178;SDS011;4624;48.126;11.546;2022-11-02T03:06:57;2.80;;;1.70;;
9178;SDS011;4624;48.126;11.546;2022-11-02T03:09:28;2.37;;;1.40;;
9178;SDS011;4624;48.126;11.546;2022-11-02T03:14:32;2.33;;;1.30;;
9178;SDS011;4624;48.126;11.546;2022-11-02T03:17:11;4.90;;;1.87;;
9178;SDS011;4624;48.126;11.546;2022-11-02T03:19:44;2.77;;;1.63;;
9178;SDS011;4624;48.126;11.546;2022-11-02T03:22:18;3.03;;;1.63;;
9178;SDS011;4624;48.126;11.546;2022-11-02T03:24:54;4.43;;;2.63;;
9178;SDS011;4624;48.126;11.546;2022-11-02T03:27:28;4.37;;;2.10;;
9178;SDS011;4624;48.126;11.546;2022-11-02T03:30:04;4.23;;;2.17;;
9178;SDS011;4624;48.126;11.546;2022-11-02T03:32:35;3.70;;;2.17;;
9178;SDS011;4624;48.126;11.546;2022-11-02T03:35:07;7.07;;;2.00;;
9178;SDS011;4624;48.126;11.546;2022-11-02T03:37:40;3.47;;;2.27;;
9178;SDS011;4624;48.126;11.546;2022-11-02T03:40:12;2.80;;;1.60;;
9178;SDS011;4624;48.126;11.546;2022-11-02T03:42:43;5.00;;;2.30;;
9178;SDS011;4624;48.126;11.546;2022-11-02T03:45:13;5.57;;;2.30;;
9178;SDS011;4624;48.126;11.546;2022-11-02T03:47:43;3.47;;;2.20;;
9178;SDS011;4624;48.126;11.546;2022-11-02T03:50:12;6.03;;;2.20;;
9178;SDS011;4624;48.126;11.546;2022-11-02T03:52:43;3.07;;;1.67;;
9178;SDS011;4624;48.126;11.546;2022-11-02T03:55:12;2.87;;;1.70;;
9178;SDS011;4624;48.126;11.546;2022-11-02T03:57:44;2.57;;;1.80;;
9178;SDS011;4624;48.126;11.546;2022-11-02T04:00:15;3.50;;;1.70;;
9178;SDS011;4624;48.126;11.546;2022-11-02T04:02:44;2.63;;;1.70;;
9178;SDS011;4624;48.126;11.546;2022-11-02T04:05:13;2.67;;;2.00;;
9178;SDS011;4624;48.126;11.546;2022-11-02T04:07:41;2.87;;;1.80;;
9178;SDS011;4624;48.126;11.546;2022-11-02T04:10:28;3.60;;;2.00;;
9178;SDS011;4624;48.126;11.546;2022-11-02T04:12:55;4.10;;;2.23;;
9178;SDS011;4624;48.126;11.546;2022-11-02T04:15:40;2.23;;;2.00;;
9178;SDS011;4624;48.126;11.546;2022-11-02T04:18:07;2.77;;;2.20;;
9178;SDS011;4624;48.126;11.546;2022-11-02T04:20:51;3.87;;;1.80;;
9178;SDS011;4624;48.126;11.546;2022-11-02T04:23:18;3.20;;;2.20;;
9178;SDS011;4624;48.126;11.546;2022-11-02T04:26:03;3.87;;;2.03;;
9178;SDS011;4624;48.126;11.546;2022-11-02T04:28:30;3.00;;;2.23;;
9178;SDS011;4624;48.126;11.546;2022-11-02T04:30:58;2.77;;;1.90;;
9178;SDS011;4624;48.126;11.546;2022-11-02T04:33:25;3.50;;;2.10;;
9178;SDS011;4624;48.126;11.546;2022-11-02T04:35:57;3.07;;;2.23;;
9178;SDS011;4624;48.126;11.546;2022-11-02T04:38:24;5.23;;;2.33;;
9178;SDS011;4624;48.126;11.546;2022-11-02T04:41:05;4.33;;;2.07;;
9178;SDS011;4624;48.126;11.546;2022-11-02T04:43:50;4.17;;;2.37;;
9178;SDS011;4624;48.126;11.546;2022-11-02T04:46:18;3.43;;;2.00;;
9178;SDS011;4624;48.126;11.546;2022-11-02T04:48:46;3.63;;;2.37;;
9178;SDS011;4624;48.126;11.546;2022-11-02T04:51:12;4.60;;;2.47;;
9178;SDS011;4624;48.126;11.546;2022-11-02T04:53:39;3.63;;;2.20;;
9178;SDS011;4624;48.126;11.546;2022-11-02T04:56:06;3.53;;;2.20;;
9178;SDS011;4624;48.126;11.546;2022-11-02T04:58:33;5.33;;;2.43;;
9178;SDS011;4624;48.126;11.546;2022-11-02T05:01:03;3.73;;;2.00;;
9178;SDS011;4624;48.126;11.546;2022-11-02T05:03:32;2.67;;;2.20;;
9178;SDS011;4624;48.126;11.546;2022-11-02T05:05:59;5.13;;;2.60;;
9178;SDS011;4624;48.126;11.546;2022-11-02T05:08:25;6.17;;;2.00;;
9178;SDS011;4624;48.126;11.546;2022-11-02T05:10:53;4.57;;;2.43;;
9178;SDS011;4624;48.126;11.546;2022-11-02T05:13:20;4.17;;;2.37;;
9178;SDS011;4624;48.126;11.546;2022-11-02T05:15:47;4.90;;;2.10;;
9178;SDS011;4624;48.126;11.546;2022-11-02T05:18:14;4.83;;;2.10;;
9178;SDS011;4624;48.126;11.546;2022-11-02T05:20:42;4.97;;;2.10;;
9178;SDS011;4624;48.126;11.546;2022-11-02T05:23:14;4.43;;;2.27;;
9178;SDS011;4624;48.126;11.546;2022-11-02T05:25:41;4.67;;;2.33;;
9178;SDS011;4624;48.126;11.546;2022-11-02T05:28:07;4.47;;;2.03;;
9178;SDS011;4624;48.126;11.546;2022-11-02T05:30:34;2.43;;;1.70;;
9178;SDS011;4624;48.126;11.546;2022-11-02T05:33:01;2.37;;;1.80;;
9178;SDS011;4624;48.126;11.546;2022-11-02T05:35:27;2.73;;;1.77;;
9178;SDS011;4624;48.126;11.546;2022-11-02T05:37:56;2.30;;;1.43;;
9178;SDS011;4624;48.126;11.546;2022-11-02T05:40:22;1.97;;;1.70;;
9178;SDS011;4624;48.126;11.546;2022-11-02T05:42:49;3.77;;;2.27;;
9178;SDS011;4624;48.126;11.546;2022-11-02T05:45:16;4.17;;;1.90;;
9178;SDS011;4624;48.126;11.546;2022-11-02T05:47:42;2.77;;;2.07;;
9178;SDS011;4624;48.126;11.546;2022-11-02T05:50:09;4.27;;;1.80;;
9178;SDS011;4624;48.126;11.546;2022-11-02T05:52:36;5.07;;;2.07;;
9178;SDS011;4624;48.126;11.546;2022-11-02T05:55:05;4.23;;;1.83;;
9178;SDS011;4624;48.126;11.546;2022-11-02T05:57:32;2.57;;;1.80;;
9178;SDS011;4624;48.126;11.546;2022-11-02T05:59:59;3.50;;;2.00;;
9178;SDS011;4624;48.126;11.546;2022-11-02T06:02:25;4.23;;;2.43;;
9178;SDS011;4624;48.126;11.546;2022-11-02T06:04:52;3.40;;;2.00;;
9178;SDS011;4624;48.126;11.546;2022-11-02T06:07:19;4.43;;;2.10;;
9178;SDS011;4624;48.126;11.546;2022-11-02T06:09:46;4.10;;;1.60;;
9178;SDS011;4624;48.126;11.546;2022-11-02T06:12:14;3.03;;;1.73;;
9178;SDS011;4624;48.126;11.546;2022-11-02T06:14:40;4.60;;;2.00;;
9178;SDS011;4624;48.126;11.546;2022-11-02T06:17:07;2.70;;;1.90;;
9178;SDS011;4624;48.126;11.546;2022-11-02T06:19:34;3.50;;;1.87;;
9178;SDS011;4624;48.126;11.546;2022-11-02T06:22:01;5.93;;;2.57;;
9178;SDS011;4624;48.126;11.546;2022-11-02T06:24:27;4.77;;;2.27;;
9178;SDS011;4624;48.126;11.546;2022-11-02T06:26:54;3.73;;;2.40;;
9178;SDS011;4624;48.126;11.546;2022-11-02T06:29:22;3.67;;;2.30;;
9178;SDS011;4624;48.126;11.546;2022-11-02T06:31:49;3.43;;;2.17;;
9178;SDS011;4624;48.126;11.546;2022-11-02T06:34:16;5.17;;;2.27;;
9178;SDS011;4624;48.126;11.546;2022-11-02T06:36:43;4.37;;;2.23;;
9178;SDS011;4624;48.126;11.546;2022-11-02T06:39:09;8.20;;;3.20;;
9178;SDS011;4624;48.126;11.546;2022-11-02T06:41:36;5.53;;;2.37;;
9178;SDS011;4624;48.126;11.546;2022-11-02T06:44:03;8.13;;;2.27;;
9178;SDS011;4624;48.126;11.546;2022-11-02T06:46:31;5.47;;;2.30;;
9178;SDS011;4624;48.126;11.546;2022-11-02T06:48:58;5.03;;;2.27;;
9178;SDS011;4624;48.126;11.546;2022-11-02T06:51:25;3.17;;;2.30;;
9178;SDS011;4624;48.126;11.546;2022-11-02T06:53:51;6.27;;;2.20;;
9178;SDS011;4624;48.126;11.546;2022-11-02T06:56:18;6.87;;;2.40;;
9178;SDS011;4624;48.126;11.546;2022-11-02T06:58:45;5.10;;;2.57;;
9178;SDS011;4624;48.126;11.546;2022-11-02T07:01:12;5.00;;;2.37;;
9178;SDS011;4624;48.126;11.546;2022-11-02T07:03:40;4.07;;;2.37;;
9178;SDS011;4624;48.126;11.546;2022-11-02T07:06:07;3.87;;;2.40;;
9178;SDS011;4624;48.126;11.546;2022-11-02T07:08:34;9.20;;;3.40;;
9178;SDS011;4624;48.126;11.546;2022-11-02T07:11:01;7.53;;;2.73;;
9178;SDS011;4624;48.126;11.546;2022-11-02T07:13:28;6.33;;;2.73;;
9178;SDS011;4624;48.126;11.546;2022-11-02T07:15:55;4.93;;;2.37;;
9178;SDS011;4624;48.126;11.546;2022-11-02T07:18:22;4.83;;;1.90;;
9178;SDS011;4624;48.126;11.546;2022-11-02T07:20:50;3.87;;;1.90;;
9178;SDS011;4624;48.126;11.546;2022-11-02T07:23:17;3.83;;;2.00;;
9178;SDS011;4624;48.126;11.546;2022-11-02T07:25:47;7.20;;;2.10;;
9178;SDS011;4624;48.126;11.546;2022-11-02T07:28:14;3.93;;;2.90;;
9178;SDS011;4624;48.126;11.546;2022-11-02T07:30:41;5.90;;;2.63;;
9178;SDS011;4624;48.126;11.546;2022-11-02T07:33:07;8.33;;;3.70;;
9178;SDS011;4624;48.126;11.546;2022-11-02T07:35:34;4.27;;;3.27;;
9178;SDS011;4624;48.126;11.546;2022-11-02T07:38:03;5.40;;;3.00;;
9178;SDS011;4624;48.126;11.546;2022-11-02T07:40:32;5.43;;;2.83;;
9178;SDS011;4624;48.126;11.546;2022-11-02T07:43:01;4.80;;;2.70;;
9178;SDS011;4624;48.126;11.546;2022-11-02T07:45:28;6.37;;;2.90;;
9178;SDS011;4624;48.126;11.546;2022-11-02T07:47:55;5.90;;;2.87;;
9178;SDS011;4624;48.126;11.546;2022-11-02T07:50:22;5.63;;;2.20;;
9178;SDS011;4624;48.126;11.546;2022-11-02T07:52:51;5.20;;;2.40;;
9178;SDS011;4624;48.126;11.546;2022-11-02T07:55:20;5.10;;;2.60;;
9178;SDS011;4624;48.126;11.546;2022-11-02T07:57:52;6.03;;;2.15;;
9178;SDS011;4624;48.126;11.546;2022-11-02T08:00:19;3.67;;;1.52;;
9178;SDS011;4624;48.126;11.546;2022-11-02T08:02:46;3.53;;;1.67;;
9178;SDS011;4624;48.126;11.546;2022-11-02T08:05:13;2.72;;;1.35;;
9178;SDS011;4624;48.126;11.546;2022-11-02T08:07:40;3.22;;;1.60;;
9178;SDS011;4624;48.126;11.546;2022-11-02T08:10:07;2.67;;;1.38;;
9178;SDS011;4624;48.126;11.546;2022-11-02T08:12:35;2.58;;;1.23;;
9178;SDS011;4624;48.126;11.546;2022-11-02T08:15:02;5.22;;;1.70;;
9178;SDS011;4624;48.126;11.546;2022-11-02T08:17:29;2.55;;;1.00;;
9178;SDS011;4624;48.126;11.546;2022-11-02T08:19:56;1.77;;;1.33;;
9178;SDS011;4624;48.126;11.546;2022-11-02T08:22:23;3.13;;;1.08;;
9178;SDS011;4624;48.126;11.546;2022-11-02T08:24:49;4.10;;;1.20;;
9178;SDS011;4624;48.126;11.546;2022-11-02T08:27:16;1.58;;;1.05;;
9178;SDS011;4624;48.126;11.546;2022-11-02T08:29:44;3.42;;;1.42;;
9178;SDS011;4624;48.126;11.546;2022-11-02T08:32:11;1.98;;;1.27;;
9178;SDS011;4624;48.126;11.546;2022-11-02T08:34:38;1.25;;;0.90;;
9178;SDS011;4624;48.126;11.546;2022-11-02T08:37:05;1.55;;;1.00;;
9178;SDS011;4624;48.126;11.546;2022-11-02T08:39:32;1.77;;;1.05;;
9178;SDS011;4624;48.126;11.546;2022-11-02T08:41:59;2.33;;;1.02;;
9178;SDS011;4624;48.126;11.546;2022-11-02T08:44:26;3.58;;;1.13;;
9178;SDS011;4624;48.126;11.546;2022-11-02T08:46:55;2.28;;;0.95;;
9178;SDS011;4624;48.126;11.546;2022-11-02T08:49:21;2.90;;;1.33;;
9178;SDS011;4624;48.126;11.546;2022-11-02T08:51:48;2.08;;;1.17;;
9178;SDS011;4624;48.126;11.546;2022-11-02T08:54:15;2.15;;;1.23;;
9178;SDS011;4624;48.126;11.546;2022-11-02T08:56:42;3.00;;;0.93;;
9178;SDS011;4624;48.126;11.546;2022-11-02T08:59:09;5.68;;;1.58;;
9178;SDS011;4624;48.126;11.546;2022-11-02T09:01:35;3.10;;;1.00;;
9178;SDS011;4624;48.126;11.546;2022-11-02T09:04:04;2.30;;;0.82;;
9178;SDS011;4624;48.126;11.546;2022-11-02T09:06:31;1.48;;;0.70;;
9178;SDS011;4624;48.126;11.546;2022-11-02T09:08:58;2.25;;;0.80;;
9178;SDS011;4624;48.126;11.546;2022-11-02T09:11:24;2.17;;;0.80;;
9178;SDS011;4624;48.126;11.546;2022-11-02T09:13:51;3.83;;;1.10;;
9178;SDS011;4624;48.126;11.546;2022-11-02T09:16:18;3.60;;;0.80;;
9178;SDS011;4624;48.126;11.546;2022-11-02T09:18:45;3.50;;;0.82;;
9178;SDS011;4624;48.126;11.546;2022-11-02T09:21:13;2.17;;;0.82;;
9178;SDS011;4624;48.126;11.546;2022-11-02T09:23:40;5.38;;;1.33;;
9178;SDS011;4624;48.126;11.546;2022-11-02T09:26:07;4.28;;;1.75;;
9178;SDS011;4624;48.126;11.546;2022-11-02T09:28:33;2.60;;;0.98;;
9178;SDS011;4624;48.126;11.546;2022-11-02T09:31:00;4.07;;;1.00;;
9178;SDS011;4624;48.126;11.546;2022-11-02T09:33:29;1.65;;;0.82;;
9178;SDS011;4624;48.126;11.546;2022-11-02T09:36:00;2.40;;;0.70;;
9178;SDS011;4624;48.126;11.546;2022-11-02T09:38:29;1.42;;;0.82;;
9178;SDS011;4624;48.126;11.546;2022-11-02T09:41:00;4.05;;;1.20;;
9178;SDS011;4624;48.126;11.546;2022-11-02T09:43:34;2.85;;;1.08;;
9178;SDS011;4624;48.126;11.546;2022-11-02T09:46:08;7.75;;;1.17;;
9178;SDS011;4624;48.126;11.546;2022-11-02T09:48:38;4.10;;;1.10;;
9178;SDS011;4624;48.126;11.546;2022-11-02T09:51:08;2.85;;;0.80;;
9178;SDS011;4624;48.126;11.546;2022-11-02T09:53:42;1.80;;;0.80;;
9178;SDS011;4624;48.126;11.546;2022-11-02T09:56:16;3.27;;;0.90;;
9178;SDS011;4624;48.126;11.546;2022-11-02T09:58:45;2.90;;;0.80;;
9178;SDS011;4624;48.126;11.546;2022-11-02T10:01:18;3.23;;;0.70;;
9178;SDS011;4624;48.126;11.546;2022-11-02T10:04:03;3.03;;;0.70;;
9178;SDS011;4624;48.126;11.546;2022-11-02T10:06:53;2.03;;;1.10;;
9178;SDS011;4624;48.126;11.546;2022-11-02T10:09:30;2.63;;;1.00;;
9178;SDS011;4624;48.126;11.546;2022-11-02T10:12:04;2.80;;;0.80;;
9178;SDS011;4624;48.126;11.546;2022-11-02T10:14:37;2.80;;;1.20;;
9178;SDS011;4624;48.126;11.546;2022-11-02T10:17:12;2.37;;;0.70;;
9178;SDS011;4624;48.126;11.546;2022-11-02T10:19:42;2.20;;;1.00;;
9178;SDS011;4624;48.126;11.546;2022-11-02T10:22:13;3.20;;;1.07;;
9178;SDS011;4624;48.126;11.546;2022-11-02T10:24:42;2.70;;;0.90;;
9178;SDS011;4624;48.126;11.546;2022-11-02T10:27:12;2.23;;;1.00;;
9178;SDS011;4624;48.126;11.546;2022-11-02T10:29:46;1.73;;;0.60;;
9178;SDS011;4624;48.126;11.546;2022-11-02T10:32:17;3.33;;;0.67;;
9178;SDS011;4624;48.126;11.546;2022-11-02T10:34:44;3.60;;;0.80;;
9178;SDS011;4624;48.126;11.546;2022-11-02T10:37:18;2.20;;;0.80;;
9178;SDS011;4624;48.126;11.546;2022-11-02T10:39:59;3.73;;;1.13;;
9178;SDS011;4624;48.126;11.546;2022-11-02T10:42:57;2.83;;;0.70;;
9178;SDS011;4624;48.126;11.546;2022-11-02T10:45:41;1.30;;;0.70;;
9178;SDS011;4624;48.126;11.546;2022-11-02T10:48:22;5.00;;;0.90;;
9178;SDS011;4624;48.126;11.546;2022-11-02T10:50:56;3.90;;;1.00;;
9178;SDS011;4624;48.126;11.546;2022-11-02T10:53:32;2.73;;;0.70;;
9178;SDS011;4624;48.126;11.546;2022-11-02T10:56:02;3.77;;;0.90;;
9178;SDS011;4624;48.126;11.546;2022-11-02T10:58:35;4.73;;;0.77;;
9178;SDS011;4624;48.126;11.546;2022-11-02T11:01:07;1.87;;;0.70;;
9178;SDS011;4624;48.126;11.546;2022-11-02T11:03:51;1.60;;;0.67;;
9178;SDS011;4624;48.126;11.546;2022-11-02T11:06:19;2.90;;;0.80;;
9178;SDS011;4624;48.126;11.546;2022-11-02T11:08:47;4.37;;;1.07;;
9178;SDS011;4624;48.126;11.546;2022-11-02T11:11:21;6.20;;;0.90;;
9178;SDS011;4624;48.126;11.546;2022-11-02T11:13:58;6.37;;;0.97;;
9178;SDS011;4624;48.126;11.546;2022-11-02T11:16:37;2.03;;;0.70;;
9178;SDS011;4624;48.126;11.546;2022-11-02T11:19:14;6.13;;;0.80;;
9178;SDS011;4624;48.126;11.546;2022-11-02T11:21:46;3.27;;;0.97;;
9178;SDS011;4624;48.126;11.546;2022-11-02T11:24:21;1.87;;;0.90;;
9178;SDS011;4624;48.126;11.546;2022-11-02T11:29:51;2.03;;;0.70;;
9178;SDS011;4624;48.126;11.546;2022-11-02T11:32:21;3.87;;;0.70;;
9178;SDS011;4624;48.126;11.546;2022-11-02T11:34:52;3.43;;;0.80;;
9178;SDS011;4624;48.126;11.546;2022-11-02T11:37:22;4.23;;;0.90;;
9178;SDS011;4624;48.126;11.546;2022-11-02T11:39:52;1.50;;;0.90;;
9178;SDS011;4624;48.126;11.546;2022-11-02T11:42:24;2.27;;;0.70;;
9178;SDS011;4624;48.126;11.546;2022-11-02T11:44:55;3.57;;;0.70;;
9178;SDS011;4624;48.126;11.546;2022-11-02T11:47:24;4.37;;;0.83;;
9178;SDS011;4624;48.126;11.546;2022-11-02T11:49:53;2.60;;;0.70;;
9178;SDS011;4624;48.126;11.546;2022-11-02T11:52:23;1.90;;;0.50;;
9178;SDS011;4624;48.126;11.546;2022-11-02T11:54:54;3.17;;;1.00;;
9178;SDS011;4624;48.126;11.546;2022-11-02T11:57:26;3.60;;;0.90;;
9178;SDS011;4624;48.126;11.546;2022-11-02T11:59:55;2.17;;;0.70;;
9178;SDS011;4624;48.126;11.546;2022-11-02T12:02:26;4.43;;;1.00;;
9178;SDS011;4624;48.126;11.546;2022-11-02T12:04:57;4.40;;;0.63;;
9178;SDS011;4624;48.126;11.546;2022-11-02T12:07:46;4.00;;;0.87;;
9178;SDS011;4624;48.126;11.546;2022-11-02T12:10:27;1.27;;;0.57;;
9178;SDS011;4624;48.126;11.546;2022-11-02T12:13:12;2.47;;;0.80;;
9178;SDS011;4624;48.126;11.546;2022-11-02T12:15:53;2.47;;;0.80;;
9178;SDS011;4624;48.126;11.546;2022-11-02T12:18:31;2.00;;;0.60;;
9178;SDS011;4624;48.126;11.546;2022-11-02T12:21:11;1.20;;;0.70;;
9178;SDS011;4624;48.126;11.546;2022-11-02T12:23:51;2.20;;;0.70;;
9178;SDS011;4624;48.126;11.546;2022-11-02T12:26:29;3.03;;;0.70;;
9178;SDS011;4624;48.126;11.546;2022-11-02T12:29:15;3.80;;;0.73;;
9178;SDS011;4624;48.126;11.546;2022-11-02T12:31:55;3.50;;;0.93;;
9178;SDS011;4624;48.126;11.546;2022-11-02T12:37:24;3.13;;;0.80;;
9178;SDS011;4624;48.126;11.546;2022-11-02T12:40:01;3.03;;;0.90;;
9178;SDS011;4624;48.126;11.546;2022-11-02T12:42:44;3.07;;;0.80;;
9178;SDS011;4624;48.126;11.546;2022-11-02T12:45:23;3.73;;;0.53;;
9178;SDS011;4624;48.126;11.546;2022-11-02T12:47:56;4.40;;;1.03;;
9178;SDS011;4624;48.126;11.546;2022-11-02T12:50:28;1.97;;;0.80;;
9178;SDS011;4624;48.126;11.546;2022-11-02T12:53:20;2.87;;;0.90;;
9178;SDS011;4624;48.126;11.546;2022-11-02T12:56:11;3.33;;;0.90;;
9178;SDS011;4624;48.126;11.546;2022-11-02T12:58:43;2.83;;;0.90;;
9178;SDS011;4624;48.126;11.546;2022-11-02T13:01:12;3.30;;;0.97;;
9178;SDS011;4624;48.126;11.546;2022-11-02T13:03:46;1.90;;;0.80;;
9178;SDS011;4624;48.126;11.546;2022-11-02T13:06:18;1.90;;;0.67;;
9178;SDS011;4624;48.126;11.546;2022-11-02T13:08:51;1.53;;;0.70;;
9178;SDS011;4624;48.126;11.546;2022-11-02T13:11:22;2.27;;;0.90;;
9178;SDS011;4624;48.126;11.546;2022-11-02T13:14:03;4.03;;;0.70;;
9178;SDS011;4624;48.126;11.546;2022-11-02T13:16:38;3.27;;;0.70;;
9178;SDS011;4624;48.126;11.546;2022-11-02T13:19:11;2.60;;;0.63;;
9178;SDS011;4624;48.126;11.546;2022-11-02T13:21:45;0.83;;;0.53;;
9178;SDS011;4624;48.126;11.546;2022-11-02T13:24:16;2.17;;;0.50;;
9178;SDS011;4624;48.126;11.546;2022-11-02T13:26:47;3.37;;;0.67;;
9178;SDS011;4624;48.126;11.546;2022-11-02T13:29:16;3.00;;;0.50;;
9178;SDS011;4624;48.126;11.546;2022-11-02T13:31:49;2.17;;;0.47;;
9178;SDS011;4624;48.126;11.546;2022-11-02T13:34:21;1.10;;;0.30;;
9178;SDS011;4624;48.126;11.546;2022-11-02T13:36:56;1.20;;;0.57;;
9178;SDS011;4624;48.126;11.546;2022-11-02T13:39:25;1.60;;;0.53;;
9178;SDS011;4624;48.126;11.546;2022-11-02T13:48:00;1.97;;;0.60;;
9178;SDS011;4624;48.126;11.546;2022-11-02T13:50:45;1.93;;;0.50;;
9178;SDS011;4624;48.126;11.546;2022-11-02T13:53:16;0.50;;;0.30;;
9178;SDS011;4624;48.126;11.546;2022-11-02T13:55:48;2.00;;;0.30;;
9178;SDS011;4624;48.126;11.546;2022-11-02T13:58:19;1.30;;;0.33;;
9178;SDS011;4624;48.126;11.546;2022-11-02T14:00:49;1.17;;;0.50;;
9178;SDS011;4624;48.126;11.546;2022-11-02T14:03:21;2.13;;;0.97;;
9178;SDS011;4624;48.126;11.546;2022-11-02T14:05:52;4.90;;;1.83;;
9178;SDS011;4624;48.126;11.546;2022-11-02T14:08:24;1.03;;;0.50;;
9178;SDS011;4624;48.126;11.546;2022-11-02T14:14:05;3.23;;;0.60;;
9178;SDS011;4624;48.126;11.546;2022-11-02T14:16:42;5.20;;;0.80;;
9178;SDS011;4624;48.126;11.546;2022-11-02T14:19:21;2.80;;;0.87;;
9178;SDS011;4624;48.126;11.546;2022-11-02T14:27:41;3.37;;;0.80;;
9178;SDS011;4624;48.126;11.546;2022-11-02T14:33:12;3.47;;;0.90;;
9178;SDS011;4624;48.126;11.546;2022-11-02T14:36:03;2.10;;;0.60;;
9178;SDS011;4624;48.126;11.546;2022-11-02T14:38:39;4.83;;;0.60;;
9178;SDS011;4624;48.126;11.546;2022-11-02T14:41:21;3.63;;;1.27;;
9178;SDS011;4624;48.126;11.546;2022-11-02T14:44:13;5.60;;;1.10;;
9178;SDS011;4624;48.126;11.546;2022-11-02T14:46:55;2.83;;;0.80;;
9178;SDS011;4624;48.126;11.546;2022-11-02T14:49:26;4.70;;;1.00;;
9178;SDS011;4624;48.126;11.546;2022-11-02T14:51:58;6.30;;;0.97;;
9178;SDS011;4624;48.126;11.546;2022-11-02T14:54:27;1.90;;;0.73;;
9178;SDS011;4624;48.126;11.546;2022-11-02T14:56:58;3.53;;;0.73;;
9178;SDS011;4624;48.126;11.546;2022-11-02T14:59:29;3.40;;;0.97;;
9178;SDS011;4624;48.126;11.546;2022-11-02T15:01:59;2.23;;;0.80;;
9178;SDS011;4624;48.126;11.546;2022-11-02T15:04:27;4.77;;;0.70;;
9178;SDS011;4624;48.126;11.546;2022-11-02T15:06:58;4.97;;;1.07;;
9178;SDS011;4624;48.126;11.546;2022-11-02T15:12:23;6.60;;;1.30;;
9178;SDS011;4624;48.126;11.546;2022-11-02T15:20:30;2.43;;;1.17;;
9178;SDS011;4624;48.126;11.546;2022-11-02T15:23:15;3.83;;;0.50;;
9178;SDS011;4624;48.126;11.546;2022-11-02T15:25:48;5.83;;;0.83;;
9178;SDS011;4624;48.126;11.546;2022-11-02T15:28:18;2.60;;;0.83;;
9178;SDS011;4624;48.126;11.546;2022-11-02T15:30:49;1.83;;;0.93;;
9178;SDS011;4624;48.126;11.546;2022-11-02T15:33:19;1.63;;;0.70;;
9178;SDS011;4624;48.126;11.546;2022-11-02T15:35:53;2.37;;;1.00;;
9178;SDS011;4624;48.126;11.546;2022-11-02T15:38:24;1.63;;;0.80;;
9178;SDS011;4624;48.126;11.546;2022-11-02T15:40:58;1.43;;;0.93;;
9178;SDS011;4624;48.126;11.546;2022-11-02T15:43:43;2.97;;;0.93;;
9178;SDS011;4624;48.126;11.546;2022-11-02T15:46:32;5.27;;;1.00;;
9178;SDS011;4624;48.126;11.546;2022-11-02T15:49:12;4.07;;;1.07;;
9178;SDS011;4624;48.126;11.546;2022-11-02T15:51:49;4.63;;;1.27;;
9178;SDS011;4624;48.126;11.546;2022-11-02T15:54:25;4.93;;;1.27;;
9178;SDS011;4624;48.126;11.546;2022-11-02T15:57:09;2.43;;;0.90;;
9178;SDS011;4624;48.126;11.546;2022-11-02T16:00:01;5.20;;;1.00;;